Time,TemperatureF,DewpointF,PressureIn,WindDirection,WindDirectionDegrees,WindSpeedMPH,WindSpeedGustMPH,Humidity,HourlyPrecipIn,Conditions,Clouds,dailyrainin,SoftwareType,DateUTC
2013-04-08 00:03:00,61.0,53.4,29.34,SSE,158,3.0,3.0,76,0.00,,,0.04,meteohub,2013-04-08 05:03:00,
2013-04-08 00:09:00,60.8,53.2,29.31,SSE,158,1.0,3.0,76,0.00,,,0.04,meteohub,2013-04-08 05:09:00,
2013-04-08 00:14:00,60.8,52.9,29.31,SSE,158,3.0,3.0,75,0.00,,,0.04,meteohub,2013-04-08 05:14:00,
2013-04-08 00:19:00,60.8,52.9,29.31,South,180,2.0,3.0,75,0.00,,,0.04,meteohub,2013-04-08 05:19:00,
2013-04-08 00:24:00,60.8,53.2,29.31,SSE,158,3.0,3.0,76,0.00,,,0.04,meteohub,2013-04-08 05:24:00,
2013-04-08 00:30:00,60.8,53.2,29.31,SSE,158,1.0,4.0,76,0.00,,,0.04,meteohub,2013-04-08 05:30:00,
2013-04-08 00:35:00,60.8,52.9,29.31,SE,135,4.0,4.0,75,0.00,,,0.04,meteohub,2013-04-08 05:35:00,
2013-04-08 00:40:00,60.8,53.2,29.34,South,180,3.0,6.0,76,0.00,,,0.04,meteohub,2013-04-08 05:40:00,
2013-04-08 00:45:00,60.8,52.9,29.34,South,180,2.0,6.0,75,0.00,,,0.04,meteohub,2013-04-08 05:45:00,
2013-04-08 00:51:00,60.8,52.9,29.34,ESE,112,3.0,6.0,75,0.00,,,0.04,meteohub,2013-04-08 05:51:00,
2013-04-08 00:56:00,60.8,52.9,29.34,SSE,158,2.0,5.0,75,0.00,,,0.04,meteohub,2013-04-08 05:56:00,
2013-04-08 01:01:00,60.8,52.9,29.34,South,180,8.0,8.0,75,0.00,,,0.04,meteohub,2013-04-08 06:01:00,
2013-04-08 01:06:00,61.0,53.1,29.34,South,180,3.0,8.0,75,0.00,,,0.04,meteohub,2013-04-08 06:06:00,
2013-04-08 01:12:00,61.0,53.1,29.34,SSE,158,4.0,9.0,75,0.00,,,0.04,meteohub,2013-04-08 06:12:00,
2013-04-08 01:17:00,60.8,52.9,29.34,East,90,3.0,9.0,75,0.00,,,0.04,meteohub,2013-04-08 06:17:00,
2013-04-08 01:22:00,60.8,52.9,29.28,South,180,5.0,9.0,75,0.00,,,0.04,meteohub,2013-04-08 06:22:00,
2013-04-08 01:27:00,61.0,53.1,29.28,SE,135,4.0,9.0,75,0.00,,,0.04,meteohub,2013-04-08 06:27:00,
2013-04-08 01:32:00,61.0,52.7,29.28,South,180,6.0,7.0,74,0.00,,,0.04,meteohub,2013-04-08 06:32:00,
2013-04-08 01:37:00,61.0,52.7,29.28,SSW,202,2.0,9.0,74,0.00,,,0.04,meteohub,2013-04-08 06:37:00,
2013-04-08 01:42:00,61.0,52.7,29.28,South,180,3.0,9.0,74,0.00,,,0.04,meteohub,2013-04-08 06:42:00,
2013-04-08 01:47:00,61.0,52.7,29.28,South,180,4.0,10.0,74,0.00,,,0.04,meteohub,2013-04-08 06:47:00,
2013-04-08 01:53:00,61.0,52.3,29.28,South,180,5.0,10.0,73,0.00,,,0.04,meteohub,2013-04-08 06:53:00,
2013-04-08 01:58:00,61.0,52.3,29.28,South,180,6.0,6.0,73,0.00,,,0.04,meteohub,2013-04-08 06:58:00,
2013-04-08 02:03:00,61.0,52.3,29.28,South,180,3.0,8.0,73,0.00,,,0.04,meteohub,2013-04-08 07:03:00,
2013-04-08 02:09:00,61.0,52.3,29.25,South,180,5.0,8.0,73,0.00,,,0.04,meteohub,2013-04-08 07:09:00,
2013-04-08 02:14:00,61.0,52.3,29.25,South,180,4.0,8.0,73,0.00,,,0.04,meteohub,2013-04-08 07:14:00,
2013-04-08 02:19:00,61.0,52.0,29.25,SSE,158,3.0,8.0,72,0.00,,,0.04,meteohub,2013-04-08 07:19:00,
2013-04-08 02:25:00,61.0,52.0,29.28,SSE,158,7.0,8.0,72,0.00,,,0.04,meteohub,2013-04-08 07:25:00,
2013-04-08 02:30:00,60.8,51.8,29.28,SSE,158,3.0,7.0,72,0.00,,,0.04,meteohub,2013-04-08 07:30:00,
2013-04-08 02:35:00,60.8,52.2,29.28,South,180,7.0,8.0,73,0.00,,,0.04,meteohub,2013-04-08 07:35:00,
2013-04-08 02:40:00,60.6,52.0,29.28,SSE,158,5.0,8.0,73,0.00,,,0.04,meteohub,2013-04-08 07:40:00,
2013-04-08 02:45:00,60.6,52.0,29.28,SSE,158,5.0,10.0,73,0.00,,,0.04,meteohub,2013-04-08 07:45:00,
2013-04-08 02:51:00,60.4,51.8,29.28,South,180,6.0,10.0,73,0.00,,,0.04,meteohub,2013-04-08 07:51:00,
2013-04-08 02:56:00,60.4,51.8,29.28,South,180,11.0,11.0,73,0.00,,,0.04,meteohub,2013-04-08 07:56:00,
2013-04-08 03:02:00,60.4,51.8,29.28,South,180,6.0,12.0,73,0.00,,,0.04,meteohub,2013-04-08 08:02:00,
2013-04-08 03:07:00,60.3,51.6,29.28,South,180,5.0,12.0,73,0.00,,,0.04,meteohub,2013-04-08 08:07:00,
2013-04-08 03:12:00,60.1,51.1,29.28,South,180,6.0,12.0,72,0.00,,,0.04,meteohub,2013-04-08 08:12:00,
2013-04-08 03:17:00,60.1,51.1,29.28,South,180,6.0,11.0,72,0.00,,,0.04,meteohub,2013-04-08 08:17:00,
2013-04-08 03:22:00,60.1,51.1,29.28,SSE,158,3.0,11.0,72,0.00,,,0.04,meteohub,2013-04-08 08:22:00,
2013-04-08 03:28:00,60.1,51.1,29.28,SSW,202,7.0,11.0,72,0.00,,,0.04,meteohub,2013-04-08 08:28:00,
2013-04-08 03:33:00,59.9,50.9,29.28,South,180,4.0,11.0,72,0.00,,,0.04,meteohub,2013-04-08 08:33:00,
2013-04-08 03:38:00,59.9,50.9,29.28,South,180,3.0,11.0,72,0.00,,,0.04,meteohub,2013-04-08 08:38:00,
2013-04-08 03:43:00,59.7,50.4,29.28,South,180,4.0,7.0,71,0.00,,,0.04,meteohub,2013-04-08 08:43:00,
2013-04-08 03:49:00,59.7,50.4,29.28,South,180,3.0,8.0,71,0.00,,,0.04,meteohub,2013-04-08 08:49:00,
2013-04-08 03:54:00,59.5,50.2,29.25,South,180,4.0,8.0,71,0.00,,,0.04,meteohub,2013-04-08 08:54:00,
2013-04-08 03:59:00,59.7,50.4,29.25,South,180,3.0,8.0,71,0.00,,,0.04,meteohub,2013-04-08 08:59:00,
2013-04-08 04:04:00,59.7,50.4,29.25,South,180,11.0,11.0,71,0.00,,,0.04,meteohub,2013-04-08 09:04:00,
2013-04-08 04:10:00,59.7,50.4,29.25,SSE,158,3.0,10.0,71,0.00,,,0.04,meteohub,2013-04-08 09:10:00,
2013-04-08 04:15:00,59.9,50.5,29.25,South,180,7.0,11.0,71,0.00,,,0.04,meteohub,2013-04-08 09:15:00,
2013-04-08 04:20:00,59.9,50.5,29.25,South,180,6.0,9.0,71,0.00,,,0.04,meteohub,2013-04-08 09:20:00,
2013-04-08 04:25:00,59.9,50.5,29.25,SSW,202,6.0,9.0,71,0.00,,,0.04,meteohub,2013-04-08 09:25:00,
2013-04-08 04:30:00,59.9,50.2,29.25,SSW,202,10.0,10.0,70,0.00,,,0.04,meteohub,2013-04-08 09:30:00,
2013-04-08 04:35:00,59.9,50.2,29.25,SSE,158,6.0,10.0,70,0.00,,,0.04,meteohub,2013-04-08 09:35:00,
2013-04-08 04:41:00,59.5,49.8,29.22,SE,135,3.0,10.0,70,0.00,,,0.04,meteohub,2013-04-08 09:41:00,
2013-04-08 04:46:00,59.4,49.6,29.22,SW,225,5.0,10.0,70,0.00,,,0.04,meteohub,2013-04-08 09:46:00,
2013-04-08 04:51:00,59.4,49.6,29.25,South,180,4.0,10.0,70,0.00,,,0.04,meteohub,2013-04-08 09:51:00,
2013-04-08 04:57:00,59.4,49.6,29.25,ESE,112,4.0,10.0,70,0.00,,,0.04,meteohub,2013-04-08 09:57:00,
2013-04-08 05:02:00,59.4,49.6,29.25,South,180,6.0,10.0,70,0.00,,,0.04,meteohub,2013-04-08 10:02:00,
2013-04-08 05:07:00,59.4,49.6,29.25,South,180,4.0,10.0,70,0.00,,,0.04,meteohub,2013-04-08 10:07:00,
2013-04-08 05:12:00,59.4,49.6,29.25,South,180,3.0,8.0,70,0.00,,,0.04,meteohub,2013-04-08 10:12:00,
2013-04-08 05:18:00,59.4,49.6,29.25,South,180,3.0,8.0,70,0.00,,,0.04,meteohub,2013-04-08 10:18:00,
2013-04-08 05:23:00,59.5,49.8,29.25,South,180,4.0,11.0,70,0.00,,,0.04,meteohub,2013-04-08 10:23:00,
2013-04-08 05:30:00,59.5,49.8,29.25,South,180,3.0,11.0,70,0.00,,,0.04,meteohub,2013-04-08 10:30:00,
2013-04-08 05:35:00,59.7,50.0,29.25,SSW,202,6.0,13.0,70,0.00,,,0.04,meteohub,2013-04-08 10:35:00,
2013-04-08 05:40:00,59.7,49.5,29.25,ESE,112,4.0,13.0,69,0.00,,,0.04,meteohub,2013-04-08 10:40:00,
2013-04-08 05:45:00,59.7,49.5,29.25,SSE,158,4.0,15.0,69,0.00,,,0.04,meteohub,2013-04-08 10:45:00,
2013-04-08 05:51:00,59.7,49.1,29.22,WSW,248,5.0,15.0,68,0.00,,,0.04,meteohub,2013-04-08 10:51:00,
2013-04-08 05:56:00,59.7,49.1,29.22,South,180,3.0,15.0,68,0.00,,,0.04,meteohub,2013-04-08 10:56:00,
2013-04-08 06:01:00,59.5,48.9,29.22,South,180,5.0,11.0,68,0.00,,,0.04,meteohub,2013-04-08 11:01:00,
2013-04-08 06:07:00,59.7,49.1,29.25,SW,225,6.0,11.0,68,0.00,,,0.04,meteohub,2013-04-08 11:07:00,
2013-04-08 06:11:00,60.1,49.5,29.25,SSE,158,4.0,15.0,68,0.00,,,0.04,meteohub,2013-04-08 11:11:00,
2013-04-08 06:16:00,60.1,49.5,29.25,South,180,7.0,15.0,68,0.00,,,0.04,meteohub,2013-04-08 11:16:00,
2013-04-08 06:22:00,60.1,49.5,29.25,South,180,9.0,15.0,68,0.00,,,0.04,meteohub,2013-04-08 11:22:00,
2013-04-08 06:27:00,60.1,49.1,29.25,SSE,158,6.0,11.0,67,0.00,,,0.04,meteohub,2013-04-08 11:27:00,
2013-04-08 06:32:00,59.9,48.9,29.25,South,180,8.0,11.0,67,0.00,,,0.04,meteohub,2013-04-08 11:32:00,
2013-04-08 06:37:00,59.9,48.9,29.22,SSW,202,6.0,11.0,67,0.00,,,0.04,meteohub,2013-04-08 11:37:00,
2013-04-08 06:42:00,59.9,48.9,29.22,South,180,6.0,11.0,67,0.00,,,0.04,meteohub,2013-04-08 11:42:00,
2013-04-08 06:47:00,59.9,48.9,29.22,SSE,158,10.0,12.0,67,0.00,,,0.04,meteohub,2013-04-08 11:47:00,
2013-04-08 06:52:00,60.1,49.1,29.22,SE,135,4.0,12.0,67,0.00,,,0.04,meteohub,2013-04-08 11:52:00,
2013-04-08 06:57:00,60.1,49.1,29.22,South,180,9.0,12.0,67,0.00,,,0.04,meteohub,2013-04-08 11:57:00,
2013-04-08 07:02:00,60.1,49.1,29.22,South,180,6.0,13.0,67,0.00,,,0.04,meteohub,2013-04-08 12:02:00,
2013-04-08 07:08:00,60.4,49.5,29.25,South,180,9.0,13.0,67,0.00,,,0.04,meteohub,2013-04-08 12:08:00,
2013-04-08 07:13:00,60.6,49.6,29.25,WSW,248,4.0,17.0,67,0.00,,,0.04,meteohub,2013-04-08 12:13:00,
2013-04-08 07:18:00,60.6,49.3,29.25,SSE,158,3.0,17.0,66,0.00,,,0.04,meteohub,2013-04-08 12:18:00,
2013-04-08 07:24:00,60.6,49.3,29.28,South,180,13.0,15.0,66,0.00,,,0.04,meteohub,2013-04-08 12:24:00,
2013-04-08 07:29:00,60.8,49.5,29.28,South,180,5.0,13.0,66,0.00,,,0.04,meteohub,2013-04-08 12:29:00,
2013-04-08 07:34:00,61.2,49.6,29.28,South,180,5.0,13.0,66,0.00,,,0.04,meteohub,2013-04-08 12:34:00,
2013-04-08 07:40:00,61.7,49.8,29.25,South,180,6.0,11.0,65,0.00,,,0.04,meteohub,2013-04-08 12:40:00,
2013-04-08 07:45:00,62.1,50.2,29.25,South,180,8.0,11.0,65,0.00,,,0.04,meteohub,2013-04-08 12:45:00,
2013-04-08 07:50:00,62.2,50.0,29.25,South,180,8.0,12.0,64,0.00,,,0.04,meteohub,2013-04-08 12:50:00,
2013-04-08 07:55:00,62.6,49.8,29.28,West,270,6.0,13.0,63,0.00,,,0.04,meteohub,2013-04-08 12:55:00,
2013-04-08 08:00:00,63.0,50.2,29.28,SSW,202,10.0,13.0,63,0.00,,,0.04,meteohub,2013-04-08 13:00:00,
2013-04-08 08:05:00,63.3,50.2,29.25,SSW,202,4.0,13.0,62,0.00,,,0.04,meteohub,2013-04-08 13:05:00,
2013-04-08 08:10:00,63.7,50.4,29.25,WSW,248,9.0,15.0,62,0.00,,,0.04,meteohub,2013-04-08 13:10:00,
2013-04-08 08:15:00,63.9,50.2,29.25,SSE,158,6.0,15.0,61,0.00,,,0.04,meteohub,2013-04-08 13:15:00,
2013-04-08 08:21:00,64.4,50.7,29.25,SSW,202,7.0,15.0,61,0.00,,,0.04,meteohub,2013-04-08 13:21:00,
2013-04-08 08:26:00,65.3,51.4,29.28,South,180,8.0,13.0,61,0.00,,,0.04,meteohub,2013-04-08 13:26:00,
2013-04-08 08:32:00,65.5,50.7,29.28,ESE,112,8.0,13.0,59,0.00,,,0.04,meteohub,2013-04-08 13:32:00,
2013-04-08 08:37:00,65.1,50.0,29.25,ESE,112,8.0,12.0,58,0.00,,,0.04,meteohub,2013-04-08 13:37:00,
2013-04-08 08:42:00,65.1,50.5,29.25,SSW,202,13.0,15.0,59,0.00,,,0.04,meteohub,2013-04-08 13:42:00,
2013-04-08 08:47:00,65.5,50.4,29.25,SW,225,8.0,15.0,58,0.00,,,0.04,meteohub,2013-04-08 13:47:00,
2013-04-08 08:52:00,65.8,51.1,29.25,SW,225,10.0,15.0,59,0.00,,,0.04,meteohub,2013-04-08 13:52:00,
2013-04-08 08:57:00,65.7,50.5,29.25,South,180,10.0,17.0,58,0.00,,,0.04,meteohub,2013-04-08 13:57:00,
2013-04-08 09:02:00,65.7,50.9,29.25,South,180,11.0,17.0,59,0.00,,,0.04,meteohub,2013-04-08 14:02:00,
2013-04-08 09:08:00,65.7,50.9,29.28,SW,225,8.0,17.0,59,0.00,,,0.04,meteohub,2013-04-08 14:08:00,
2013-04-08 09:13:00,65.8,51.1,29.28,SW,225,6.0,15.0,59,0.00,,,0.04,meteohub,2013-04-08 14:13:00,
2013-04-08 09:18:00,65.8,51.1,29.28,West,270,10.0,13.0,59,0.00,,,0.04,meteohub,2013-04-08 14:18:00,
2013-04-08 09:24:00,65.8,51.1,29.28,SSE,158,4.0,20.0,59,0.00,,,0.04,meteohub,2013-04-08 14:24:00,
2013-04-08 09:30:00,66.0,51.3,29.28,South,180,11.0,20.0,59,0.00,,,0.04,meteohub,2013-04-08 14:30:00,
2013-04-08 09:35:00,66.0,51.3,29.28,SW,225,6.0,13.0,59,0.00,,,0.04,meteohub,2013-04-08 14:35:00,
2013-04-08 09:40:00,66.2,51.4,29.25,SSW,202,6.0,13.0,59,0.00,,,0.04,meteohub,2013-04-08 14:40:00,
2013-04-08 09:45:00,66.4,51.6,29.25,WSW,248,6.0,13.0,59,0.00,,,0.04,meteohub,2013-04-08 14:45:00,
2013-04-08 09:51:00,66.9,52.2,29.28,SSW,202,11.0,13.0,59,0.00,,,0.04,meteohub,2013-04-08 14:51:00,
2013-04-08 09:56:00,67.1,51.8,29.28,SW,225,8.0,14.0,58,0.00,,,0.04,meteohub,2013-04-08 14:56:00,
2013-04-08 10:01:00,67.5,52.2,29.28,South,180,6.0,16.0,58,0.00,,,0.04,meteohub,2013-04-08 15:01:00,
2013-04-08 10:06:00,67.5,51.6,29.25,SSW,202,8.0,18.0,57,0.00,,,0.04,meteohub,2013-04-08 15:06:00,
2013-04-08 10:12:00,67.6,51.8,29.25,SW,225,8.0,18.0,57,0.00,,,0.04,meteohub,2013-04-08 15:12:00,
2013-04-08 10:17:00,67.8,52.0,29.25,SW,225,6.0,18.0,57,0.00,,,0.04,meteohub,2013-04-08 15:17:00,
2013-04-08 10:22:00,67.8,51.6,29.28,South,180,14.0,16.0,56,0.00,,,0.04,meteohub,2013-04-08 15:22:00,
2013-04-08 10:27:00,67.8,52.0,29.28,South,180,3.0,15.0,57,0.00,,,0.04,meteohub,2013-04-08 15:27:00,
2013-04-08 10:32:00,68.0,51.8,29.28,SSW,202,10.0,14.0,56,0.00,,,0.04,meteohub,2013-04-08 15:32:00,
2013-04-08 10:37:00,68.5,52.2,29.28,West,270,4.0,14.0,56,0.00,,,0.04,meteohub,2013-04-08 15:37:00,
2013-04-08 10:42:00,68.5,52.2,29.28,SW,225,8.0,12.0,56,0.00,,,0.04,meteohub,2013-04-08 15:42:00,
2013-04-08 10:48:00,69.3,52.0,29.28,SW,225,12.0,15.0,54,0.00,,,0.04,meteohub,2013-04-08 15:48:00,
2013-04-08 10:53:00,68.9,51.6,29.28,SSW,202,9.0,17.0,54,0.00,,,0.04,meteohub,2013-04-08 15:53:00,
2013-04-08 10:58:00,69.4,52.5,29.28,SSW,202,4.0,17.0,55,0.00,,,0.04,meteohub,2013-04-08 15:58:00,
2013-04-08 11:03:00,69.1,51.8,29.28,South,180,8.0,17.0,54,0.00,,,0.04,meteohub,2013-04-08 16:03:00,
2013-04-08 11:08:00,69.4,52.2,29.31,SSW,202,8.0,17.0,54,0.00,,,0.04,meteohub,2013-04-08 16:08:00,
2013-04-08 11:14:00,69.1,51.8,29.31,SW,225,9.0,15.0,54,0.00,,,0.04,meteohub,2013-04-08 16:14:00,
2013-04-08 11:19:00,69.3,52.0,29.31,SW,225,6.0,15.0,54,0.00,,,0.04,meteohub,2013-04-08 16:19:00,
2013-04-08 11:24:00,69.3,51.4,29.31,SSW,202,10.0,13.0,53,0.00,,,0.04,meteohub,2013-04-08 16:24:00,
2013-04-08 11:29:00,69.3,52.0,29.31,WSW,248,13.0,13.0,54,0.00,,,0.04,meteohub,2013-04-08 16:29:00,
2013-04-08 11:35:00,69.1,51.3,29.31,South,180,13.0,13.0,53,0.00,,,0.04,meteohub,2013-04-08 16:35:00,
2013-04-08 11:40:00,68.9,51.6,29.31,SSW,202,6.0,13.0,54,0.00,,,0.04,meteohub,2013-04-08 16:40:00,
2013-04-08 11:45:00,68.4,51.6,29.31,SSW,202,4.0,13.0,55,0.00,,,0.04,meteohub,2013-04-08 16:45:00,
2013-04-08 11:51:00,68.4,51.6,29.31,SSE,158,4.0,16.0,55,0.00,,,0.04,meteohub,2013-04-08 16:51:00,
2013-04-08 11:56:00,69.4,53.1,29.28,SSW,202,4.0,16.0,56,0.00,,,0.04,meteohub,2013-04-08 16:56:00,
2013-04-08 12:01:00,70.5,54.1,29.28,SE,135,5.0,16.0,56,0.00,,,0.04,meteohub,2013-04-08 17:01:00,
2013-04-08 12:07:00,71.8,53.8,29.28,SW,225,8.0,13.0,53,0.00,,,0.04,meteohub,2013-04-08 17:07:00,
2013-04-08 12:12:00,72.5,54.0,29.28,South,180,8.0,13.0,52,0.00,,,0.04,meteohub,2013-04-08 17:12:00,
2013-04-08 12:17:00,72.9,53.6,29.28,SSE,158,3.0,13.0,51,0.00,,,0.04,meteohub,2013-04-08 17:17:00,
2013-04-08 12:22:00,73.4,53.6,29.25,SSW,202,5.0,11.0,50,0.00,,,0.04,meteohub,2013-04-08 17:22:00,
2013-04-08 12:27:00,73.8,53.4,29.25,SSW,202,6.0,11.0,49,0.00,,,0.04,meteohub,2013-04-08 17:27:00,
2013-04-08 12:32:00,74.1,53.2,29.25,South,180,10.0,11.0,48,0.00,,,0.04,meteohub,2013-04-08 17:32:00,
2013-04-08 12:37:00,74.1,53.2,29.28,SSW,202,9.0,12.0,48,0.00,,,0.04,meteohub,2013-04-08 17:37:00,
2013-04-08 12:42:00,75.0,53.4,29.28,SW,225,7.0,12.0,47,0.00,,,0.04,meteohub,2013-04-08 17:42:00,
2013-04-08 12:48:00,75.6,52.7,29.28,South,180,10.0,15.0,45,0.00,,,0.04,meteohub,2013-04-08 17:48:00,
2013-04-08 12:53:00,76.3,54.0,29.28,South,180,16.0,16.0,46,0.00,,,0.04,meteohub,2013-04-08 17:53:00,
2013-04-08 12:58:00,76.5,52.9,29.28,SW,225,13.0,16.0,44,0.00,,,0.04,meteohub,2013-04-08 17:58:00,
2013-04-08 13:04:00,77.0,53.4,29.28,SW,225,9.0,16.0,44,0.00,,,0.04,meteohub,2013-04-08 18:04:00,
2013-04-08 13:09:00,76.8,52.7,29.28,SSW,202,6.0,16.0,43,0.00,,,0.04,meteohub,2013-04-08 18:09:00,
2013-04-08 13:14:00,76.5,52.3,29.28,South,180,4.0,15.0,43,0.00,,,0.04,meteohub,2013-04-08 18:14:00,
2013-04-08 13:20:00,76.1,51.4,29.28,SSW,202,19.0,19.0,42,0.00,,,0.04,meteohub,2013-04-08 18:20:00,
2013-04-08 13:25:00,75.6,51.4,29.28,South,180,7.0,19.0,43,0.00,,,0.04,meteohub,2013-04-08 18:25:00,
2013-04-08 13:31:00,75.7,52.3,29.28,SSW,202,9.0,19.0,44,0.00,,,0.04,meteohub,2013-04-08 18:31:00,
2013-04-08 13:37:00,76.3,52.7,29.28,South,180,11.0,14.0,44,0.00,,,0.04,meteohub,2013-04-08 18:37:00,
2013-04-08 13:42:00,76.1,52.0,29.28,SSW,202,9.0,13.0,43,0.00,,,0.04,meteohub,2013-04-08 18:42:00,
2013-04-08 13:47:00,76.1,52.0,29.28,SW,225,6.0,15.0,43,0.00,,,0.04,meteohub,2013-04-08 18:47:00,
2013-04-08 13:52:00,75.2,50.5,29.28,SSW,202,8.0,15.0,42,0.00,,,0.04,meteohub,2013-04-08 18:52:00,
2013-04-08 13:57:00,74.3,51.1,29.28,South,180,11.0,17.0,44,0.00,,,0.04,meteohub,2013-04-08 18:57:00,
2013-04-08 14:02:00,73.6,50.9,29.28,South,180,8.0,17.0,45,0.00,,,0.04,meteohub,2013-04-08 19:02:00,
2013-04-08 14:03:00,73.6,50.9,29.28,SSW,202,4.0,17.0,45,0.00,,,0.04,meteohub,2013-04-08 19:03:00,
2013-04-08 14:12:00,73.0,51.1,29.31,South,180,10.0,17.0,46,0.00,,,0.04,meteohub,2013-04-08 19:12:00,
2013-04-08 14:17:00,74.1,52.0,29.31,SSW,202,8.0,14.0,46,0.00,,,0.04,meteohub,2013-04-08 19:17:00,
2013-04-08 14:22:00,75.9,53.6,29.28,West,270,13.0,15.0,46,0.00,,,0.04,meteohub,2013-04-08 19:22:00,
2013-04-08 14:27:00,76.6,53.1,29.28,WSW,248,9.0,15.0,44,0.00,,,0.04,meteohub,2013-04-08 19:27:00,
2013-04-08 14:32:00,77.5,53.2,29.28,SW,225,10.0,15.0,43,0.00,,,0.04,meteohub,2013-04-08 19:32:00,
2013-04-08 14:37:00,77.7,52.9,29.25,South,180,8.0,13.0,42,0.00,,,0.04,meteohub,2013-04-08 19:37:00,
2013-04-08 14:42:00,77.5,52.7,29.25,South,180,9.0,16.0,42,0.00,,,0.04,meteohub,2013-04-08 19:42:00,
2013-04-08 14:47:00,76.3,51.4,29.25,SSW,202,9.0,16.0,42,0.00,,,0.04,meteohub,2013-04-08 19:47:00,
2013-04-08 14:53:00,75.6,50.9,29.25,ESE,112,8.0,15.0,42,0.00,,,0.04,meteohub,2013-04-08 19:53:00,
2013-04-08 14:58:00,74.8,50.9,29.28,SSW,202,9.0,15.0,43,0.00,,,0.04,meteohub,2013-04-08 19:58:00,
2013-04-08 15:03:00,74.7,51.3,29.28,South,180,6.0,15.0,44,0.00,,,0.04,meteohub,2013-04-08 20:03:00,
2013-04-08 15:08:00,75.4,52.0,29.28,SSW,202,8.0,15.0,44,0.00,,,0.04,meteohub,2013-04-08 20:08:00,
2013-04-08 15:13:00,76.1,52.0,29.28,SSW,202,11.0,15.0,43,0.00,,,0.04,meteohub,2013-04-08 20:13:00,
2013-04-08 15:19:00,77.0,52.2,29.28,SSW,202,15.0,15.0,42,0.00,,,0.04,meteohub,2013-04-08 20:19:00,
2013-04-08 15:24:00,77.4,52.5,29.28,SSW,202,7.0,15.0,42,0.00,,,0.04,meteohub,2013-04-08 20:24:00,
2013-04-08 15:29:00,77.4,51.8,29.28,SW,225,9.0,15.0,41,0.00,,,0.04,meteohub,2013-04-08 20:29:00,
2013-04-08 15:34:00,77.0,52.2,29.28,South,180,12.0,17.0,42,0.00,,,0.04,meteohub,2013-04-08 20:34:00,
2013-04-08 15:40:00,77.2,51.6,29.25,South,180,13.0,17.0,41,0.00,,,0.04,meteohub,2013-04-08 20:40:00,
2013-04-08 15:45:00,76.8,51.3,29.25,SSW,202,19.0,19.0,41,0.00,,,0.04,meteohub,2013-04-08 20:45:00,
2013-04-08 15:50:00,75.7,50.4,29.28,SSW,202,9.0,19.0,41,0.00,,,0.04,meteohub,2013-04-08 20:50:00,
2013-04-08 15:55:00,75.2,50.5,29.28,South,180,10.0,20.0,42,0.00,,,0.04,meteohub,2013-04-08 20:55:00,
2013-04-08 16:00:00,75.0,51.1,29.28,SSE,158,8.0,20.0,43,0.00,,,0.04,meteohub,2013-04-08 21:00:00,
2013-04-08 16:06:00,75.0,51.1,29.28,South,180,12.0,20.0,43,0.00,,,0.04,meteohub,2013-04-08 21:06:00,
2013-04-08 16:11:00,75.2,51.3,29.28,South,180,6.0,15.0,43,0.00,,,0.04,meteohub,2013-04-08 21:11:00,
2013-04-08 16:16:00,75.6,50.9,29.28,South,180,11.0,17.0,42,0.00,,,0.04,meteohub,2013-04-08 21:16:00,
2013-04-08 16:21:00,75.4,50.7,29.28,SSW,202,6.0,18.0,42,0.00,,,0.04,meteohub,2013-04-08 21:21:00,
2013-04-08 16:27:00,75.2,50.5,29.28,SSE,158,9.0,18.0,42,0.00,,,0.04,meteohub,2013-04-08 21:27:00,
2013-04-08 16:32:00,74.7,50.7,29.28,South,180,10.0,18.0,43,0.00,,,0.04,meteohub,2013-04-08 21:32:00,
2013-04-08 16:37:00,74.7,50.7,29.28,SSW,202,11.0,18.0,43,0.00,,,0.04,meteohub,2013-04-08 21:37:00,
2013-04-08 16:42:00,74.3,50.4,29.28,SW,225,11.0,18.0,43,0.00,,,0.04,meteohub,2013-04-08 21:42:00,
2013-04-08 16:47:00,74.3,50.4,29.28,South,180,10.0,18.0,43,0.00,,,0.04,meteohub,2013-04-08 21:47:00,
2013-04-08 16:53:00,74.1,50.2,29.28,South,180,4.0,14.0,43,0.00,,,0.04,meteohub,2013-04-08 21:53:00,
2013-04-08 16:58:00,73.9,50.0,29.28,South,180,12.0,15.0,43,0.00,,,0.04,meteohub,2013-04-08 21:58:00,
2013-04-08 17:03:00,73.8,49.8,29.28,SW,225,8.0,15.0,43,0.00,,,0.04,meteohub,2013-04-08 22:03:00,
2013-04-08 17:08:00,73.6,50.4,29.28,SSW,202,6.0,15.0,44,0.00,,,0.04,meteohub,2013-04-08 22:08:00,
2013-04-08 17:13:00,73.6,50.4,29.28,South,180,4.0,13.0,44,0.00,,,0.04,meteohub,2013-04-08 22:13:00,
2013-04-08 17:19:00,73.4,50.2,29.28,South,180,6.0,13.0,44,0.00,,,0.04,meteohub,2013-04-08 22:19:00,
2013-04-08 17:24:00,73.6,50.9,29.28,South,180,4.0,13.0,45,0.00,,,0.04,meteohub,2013-04-08 22:24:00,
2013-04-08 17:29:00,73.8,51.1,29.28,SSW,202,4.0,11.0,45,0.00,,,0.04,meteohub,2013-04-08 22:29:00,
2013-04-08 17:35:00,73.8,51.1,29.28,SW,225,8.0,11.0,45,0.00,,,0.04,meteohub,2013-04-08 22:35:00,
2013-04-08 17:40:00,73.8,50.5,29.28,SSW,202,9.0,11.0,44,0.00,,,0.04,meteohub,2013-04-08 22:40:00,
2013-04-08 17:45:00,73.8,50.5,29.28,SW,225,10.0,11.0,44,0.00,,,0.04,meteohub,2013-04-08 22:45:00,
2013-04-08 17:51:00,73.8,50.5,29.28,SSW,202,6.0,12.0,44,0.00,,,0.04,meteohub,2013-04-08 22:51:00,
2013-04-08 17:56:00,73.6,50.4,29.28,ESE,112,3.0,12.0,44,0.00,,,0.04,meteohub,2013-04-08 22:56:00,
2013-04-08 18:02:00,73.2,50.5,29.28,WSW,248,6.0,12.0,45,0.00,,,0.04,meteohub,2013-04-08 23:02:00,
2013-04-08 18:07:00,72.9,50.4,29.28,SSW,202,6.0,11.0,45,0.00,,,0.04,meteohub,2013-04-08 23:07:00,
2013-04-08 18:12:00,72.9,50.4,29.28,South,180,7.0,13.0,45,0.00,,,0.04,meteohub,2013-04-08 23:12:00,
2013-04-08 18:17:00,72.9,50.4,29.28,SSW,202,4.0,13.0,45,0.00,,,0.04,meteohub,2013-04-08 23:17:00,
2013-04-08 18:22:00,72.9,50.4,29.31,South,180,5.0,13.0,45,0.00,,,0.04,meteohub,2013-04-08 23:22:00,
2013-04-08 18:27:00,72.7,50.2,29.31,South,180,8.0,10.0,45,0.00,,,0.04,meteohub,2013-04-08 23:27:00,
2013-04-08 18:32:00,72.5,50.0,29.31,SE,135,2.0,9.0,45,0.00,,,0.04,meteohub,2013-04-08 23:32:00,
2013-04-08 18:37:00,72.3,49.8,29.31,SSW,202,8.0,9.0,45,0.00,,,0.04,meteohub,2013-04-08 23:37:00,
2013-04-08 18:42:00,72.1,49.6,29.31,SSW,202,11.0,11.0,45,0.00,,,0.04,meteohub,2013-04-08 23:42:00,
2013-04-08 18:47:00,71.8,49.3,29.31,South,180,3.0,11.0,45,0.00,,,0.04,meteohub,2013-04-08 23:47:00,
2013-04-08 18:52:00,71.4,49.6,29.31,SSW,202,3.0,11.0,46,0.00,,,0.04,meteohub,2013-04-08 23:52:00,
2013-04-08 18:58:00,71.2,49.5,29.31,SSE,158,2.0,11.0,46,0.00,,,0.04,meteohub,2013-04-08 23:58:00,
2013-04-08 19:03:00,70.7,49.5,29.31,South,180,0.0,6.0,47,0.00,,,0.04,meteohub,2013-04-09 00:03:00,
2013-04-08 19:08:00,70.3,49.1,29.31,SE,135,2.0,6.0,47,0.00,,,0.00,meteohub,2013-04-09 00:08:00,
2013-04-08 19:13:00,70.0,49.5,29.31,SSE,158,2.0,4.0,48,0.00,,,0.00,meteohub,2013-04-09 00:13:00,
2013-04-08 19:18:00,69.8,49.3,29.31,South,180,2.0,3.0,48,0.00,,,0.00,meteohub,2013-04-09 00:18:00,
2013-04-08 19:24:00,69.6,49.6,29.31,SSE,158,0.0,3.0,49,0.00,,,0.00,meteohub,2013-04-09 00:24:00,
2013-04-08 19:29:00,69.1,49.1,29.31,SE,135,0.0,3.0,49,0.00,,,0.00,meteohub,2013-04-09 00:29:00,
2013-04-08 19:35:00,68.9,49.5,29.31,SE,135,0.0,3.0,50,0.00,,,0.00,meteohub,2013-04-09 00:35:00,
2013-04-08 19:40:00,68.7,49.3,29.34,South,180,0.0,1.0,50,0.00,,,0.00,meteohub,2013-04-09 00:40:00,
2013-04-08 19:45:00,68.4,49.5,29.34,ESE,112,3.0,3.0,51,0.00,,,0.00,meteohub,2013-04-09 00:45:00,
2013-04-08 19:50:00,68.2,49.5,29.34,South,180,0.0,3.0,51,0.00,,,0.00,meteohub,2013-04-09 00:50:00,
2013-04-08 19:56:00,68.0,49.3,29.34,South,180,0.0,3.0,51,0.00,,,0.00,meteohub,2013-04-09 00:56:00,
2013-04-08 20:01:00,67.6,49.5,29.34,ESE,112,1.0,3.0,52,0.00,,,0.00,meteohub,2013-04-09 01:01:00,
2013-04-08 20:07:00,67.5,49.8,29.34,SE,135,1.0,2.0,53,0.00,,,0.00,meteohub,2013-04-09 01:07:00,
2013-04-08 20:12:00,67.5,49.8,29.34,SE,135,1.0,2.0,53,0.00,,,0.00,meteohub,2013-04-09 01:12:00,
2013-04-08 20:17:00,67.5,49.8,29.34,SSE,158,0.0,2.0,53,0.00,,,0.00,meteohub,2013-04-09 01:17:00,
2013-04-08 20:22:00,67.5,49.8,29.31,South,180,0.0,3.0,53,0.00,,,0.00,meteohub,2013-04-09 01:22:00,
2013-04-08 20:28:00,67.5,49.8,29.31,South,180,0.0,3.0,53,0.00,,,0.00,meteohub,2013-04-09 01:28:00,
2013-04-08 20:33:00,67.5,49.8,29.31,East,90,0.0,3.0,53,0.00,,,0.00,meteohub,2013-04-09 01:33:00,
2013-04-08 20:38:00,67.3,50.0,29.31,SSW,202,0.0,1.0,54,0.00,,,0.00,meteohub,2013-04-09 01:38:00,
2013-04-08 20:44:00,67.3,50.0,29.31,ESE,112,0.0,1.0,54,0.00,,,0.00,meteohub,2013-04-09 01:44:00,
2013-04-08 20:49:00,67.1,50.0,29.31,SSE,158,0.0,1.0,54,0.00,,,0.00,meteohub,2013-04-09 01:49:00,
2013-04-08 20:54:00,66.9,50.2,29.34,SE,135,0.0,2.0,55,0.00,,,0.00,meteohub,2013-04-09 01:54:00,
2013-04-08 20:59:00,66.9,50.2,29.34,South,180,0.0,2.0,55,0.00,,,0.00,meteohub,2013-04-09 01:59:00,
2013-04-08 21:04:00,66.9,50.2,29.34,SSE,158,2.0,4.0,55,0.00,,,0.00,meteohub,2013-04-09 02:04:00,
2013-04-08 21:10:00,67.1,50.4,29.34,SE,135,4.0,4.0,55,0.00,,,0.00,meteohub,2013-04-09 02:10:00,
2013-04-08 21:15:00,67.1,50.4,29.34,SSE,158,2.0,6.0,55,0.00,,,0.00,meteohub,2013-04-09 02:15:00,
2013-04-08 21:20:00,67.3,50.5,29.34,SE,135,3.0,5.0,55,0.00,,,0.00,meteohub,2013-04-09 02:20:00,
2013-04-08 21:25:00,67.5,50.7,29.36,SSE,158,0.0,5.0,55,0.00,,,0.00,meteohub,2013-04-09 02:25:00,
2013-04-08 21:31:00,67.5,50.7,29.36,South,180,2.0,4.0,55,0.00,,,0.00,meteohub,2013-04-09 02:31:00,
2013-04-08 21:36:00,67.5,50.7,29.36,South,180,3.0,4.0,55,0.00,,,0.00,meteohub,2013-04-09 02:36:00,
2013-04-08 21:41:00,67.3,50.5,29.36,South,180,0.0,4.0,55,0.00,,,0.00,meteohub,2013-04-09 02:41:00,
2013-04-08 21:47:00,67.3,51.1,29.36,SSW,202,3.0,4.0,56,0.00,,,0.00,meteohub,2013-04-09 02:47:00,
2013-04-08 21:52:00,67.3,51.1,29.36,SSE,158,3.0,4.0,56,0.00,,,0.00,meteohub,2013-04-09 02:52:00,
2013-04-08 21:57:00,67.1,50.9,29.36,SE,135,2.0,3.0,56,0.00,,,0.00,meteohub,2013-04-09 02:57:00,
2013-04-08 22:02:00,66.9,51.3,29.36,South,180,1.0,4.0,57,0.00,,,0.00,meteohub,2013-04-09 03:02:00,
2013-04-08 22:07:00,66.7,51.4,29.36,SSE,158,1.0,4.0,58,0.00,,,0.00,meteohub,2013-04-09 03:07:00,
2013-04-08 22:12:00,66.7,51.1,29.36,SSE,158,0.0,3.0,57,0.00,,,0.00,meteohub,2013-04-09 03:12:00,
2013-04-08 22:17:00,66.7,51.1,29.36,SSW,202,0.0,3.0,57,0.00,,,0.00,meteohub,2013-04-09 03:17:00,
2013-04-08 22:23:00,66.7,51.1,29.36,South,180,0.0,3.0,57,0.00,,,0.00,meteohub,2013-04-09 03:23:00,
2013-04-08 22:28:00,66.6,50.9,29.36,South,180,2.0,2.0,57,0.00,,,0.00,meteohub,2013-04-09 03:28:00,
2013-04-08 22:33:00,66.6,50.9,29.36,SSE,158,2.0,3.0,57,0.00,,,0.00,meteohub,2013-04-09 03:33:00,
2013-04-08 22:39:00,66.6,50.9,29.36,South,180,0.0,4.0,57,0.00,,,0.00,meteohub,2013-04-09 03:39:00,
2013-04-08 22:44:00,66.6,50.9,29.36,South,180,2.0,4.0,57,0.00,,,0.00,meteohub,2013-04-09 03:44:00,
2013-04-08 22:50:00,66.6,50.9,29.36,South,180,2.0,3.0,57,0.00,,,0.00,meteohub,2013-04-09 03:50:00,
2013-04-08 22:55:00,66.6,50.9,29.36,South,180,0.0,3.0,57,0.00,,,0.00,meteohub,2013-04-09 03:55:00,
2013-04-08 23:00:00,66.6,50.9,29.36,South,180,0.0,3.0,57,0.00,,,0.00,meteohub,2013-04-09 04:00:00,
2013-04-08 23:02:00,66.6,50.9,29.36,SSW,202,2.0,3.0,57,0.00,,,0.00,meteohub,2013-04-09 04:02:00,
2013-04-08 23:04:00,66.6,50.9,29.36,SSE,158,2.0,3.0,57,0.00,,,0.00,meteohub,2013-04-09 04:04:00,
2013-04-08 23:09:00,66.6,50.9,29.36,South,180,3.0,4.0,57,0.00,,,0.00,meteohub,2013-04-09 04:09:00,
2013-04-08 23:14:00,66.4,50.7,29.36,SSE,158,1.0,4.0,57,0.00,,,0.00,meteohub,2013-04-09 04:14:00,
2013-04-08 23:20:00,66.4,50.7,29.36,SSE,158,0.0,4.0,57,0.00,,,0.00,meteohub,2013-04-09 04:20:00,
2013-04-08 23:25:00,66.2,51.1,29.36,SE,135,0.0,2.0,58,0.00,,,0.00,meteohub,2013-04-09 04:25:00,
2013-04-08 23:30:00,66.2,51.1,29.36,SSE,158,0.0,3.0,58,0.00,,,0.00,meteohub,2013-04-09 04:30:00,
2013-04-08 23:36:00,66.2,51.1,29.36,SSW,202,0.0,3.0,58,0.00,,,0.00,meteohub,2013-04-09 04:36:00,
2013-04-08 23:42:00,66.2,51.1,29.36,SSE,158,0.0,3.0,58,0.00,,,0.00,meteohub,2013-04-09 04:42:00,
2013-04-08 23:47:00,66.2,51.1,29.36,SE,135,0.0,2.0,58,0.00,,,0.00,meteohub,2013-04-09 04:47:00,
2013-04-08 23:52:00,66.0,51.3,29.36,SE,135,0.0,2.0,59,0.00,,,0.00,meteohub,2013-04-09 04:52:00,
2013-04-08 23:57:00,66.0,51.3,29.36,SSE,158,0.0,2.0,59,0.00,,,0.00,meteohub,2013-04-09 04:57:00,